Terminal Aerodrome Forecast
Issued by NWS

Home | Current Version | Previous Version | Text Only | Print | Product List | Glossary On
Versions: 1 2 3 4 5 6 7 8 9 10 11 12 13 14 15 16 17 18 19 20 21 22
000
FTUS46 KSEW 070545
TAFSEA
TAF
KSEA 070545Z 0706/0812 23007KT P6SM SCT200
     FM071200 20007KT P6SM SCT011 SCT200
     FM071400 20007KT P6SM BKN008 BKN200
     FM071830 25007KT P6SM SCT200
     FM080000 32006KT P6SM SCT200
     FM080900 VRB03KT P6SM SCT200=

USA.gov is the U.S. government's official web portal to all federal, state and local government web resources and services.